EHKV

K14-fa-1c Sea

K14-fa-1c Sea, The Netherlands
METAR EHKV 182155Z AUTO 02011KT 9999 NSC 17/15 Q1020 W///H///
Observed Flight Rules
Jul-18 @ 21:55 UTC (28 minutes ago) Visual Flight Rules
Wind Visibility Clouds
20° at 11 knots 10,000+ meters
  • Clear skies
Temperatures Readings
Current 17°C / 63°F
Dewpoint 15°C / 59°F
Humidity 88%
Altimeter 30.12" Hg
Pressure 1020 hPa
Elevation 50
METAR EHKV 182155Z AUTO 02011KT 9999 NSC 17/15 Q1020 W///H///
Observed Flight Rules
Jul-18 @ 21:55 UTC
(28 minutes ago)
VFR
Wind Visibility
20° at 11 knots 10,000+ meters
Clouds
  • Clear skies
Temperature Dewpoint
17°C / 63°F 15°C / 59°F
Humidity Altimeter Pressure
88% 30.12" Hg 1020 hPa